Time;durP1;ratioP1;P1;durP2;ratioP2;P2;SDS_P1;SDS_P2;PMS_P1;PMS_P2;Temp;Humidity;BMP_temperature;BMP_pressure;BME280_temperature;BME280_humidity;BME280_pressure;Samples;Min_cycle;Max_cycle;Signal;HPM_P1;HPM_P2
2022/08/14 00:01:05;;;;;;;;;;;13.10;99.90;;;;;;5051859;28;19912;-73
2022/08/14 00:03:30;;;;;;;;;;;13.10;99.90;;;;;;5049790;28;19963;-73
2022/08/14 00:05:57;;;;;;;;;;;13.00;99.90;;;;;;5051772;28;19913;-73
2022/08/14 00:08:22;;;;;;;;;;;13.00;99.90;;;;;;5051424;28;19924;-73
2022/08/14 00:10:48;;;;;;;;;;;12.90;99.90;;;;;;5051845;28;20255;-73
2022/08/14 00:13:15;;;;;;;;;;;12.80;99.90;;;;;;5050631;28;19908;-73
2022/08/14 00:15:42;;;;;;;;;;;12.80;99.90;;;;;;5051824;28;20007;-73
2022/08/14 00:18:09;;;;;;;;;;;12.80;99.90;;;;;;5051559;28;19913;-73
2022/08/14 00:20:36;;;;;;;;;;;12.80;99.90;;;;;;5051566;28;19909;-73
2022/08/14 00:23:02;;;;;;;;;;;12.80;99.90;;;;;;5050874;28;19909;-74
2022/08/14 00:25:28;;;;;;;;;;;12.70;99.90;;;;;;5050960;28;19964;-74
2022/08/14 00:27:53;;;;;;;;;;;12.70;99.90;;;;;;5051485;28;19909;-71
2022/08/14 00:30:19;;;;;;;;;;;12.60;99.90;;;;;;5050991;28;19948;-71
2022/08/14 00:32:44;;;;;;;;;;;12.50;99.90;;;;;;5050860;28;19909;-72
2022/08/14 00:35:10;;;;;;;;;;;12.30;99.90;;;;;;5050796;28;19913;-74
2022/08/14 00:37:37;;;;;;;;;;;12.20;99.90;;;;;;5051199;28;19915;-72
2022/08/14 00:40:03;;;;;;;;;;;12.30;99.90;;;;;;5051150;28;19913;-72
2022/08/14 00:42:29;;;;;;;;;;;12.40;99.90;;;;;;5050942;28;19909;-71
2022/08/14 00:44:54;;;;;;;;;;;12.30;99.90;;;;;;5050701;28;20320;-72
2022/08/14 00:47:23;;;;;;;;;;;12.30;99.90;;;;;;5051144;28;19920;-72
2022/08/14 00:49:49;;;;;;;;;;;12.40;99.90;;;;;;5051267;28;19959;-72
2022/08/14 00:52:15;;;;;;;;;;;12.30;99.90;;;;;;5050783;28;19909;-71
2022/08/14 00:54:41;;;;;;;;;;;12.30;99.90;;;;;;5050821;28;19909;-72
2022/08/14 00:57:07;;;;;;;;;;;12.30;99.90;;;;;;5049928;28;19912;-73
2022/08/14 00:59:34;;;;;;;;;;;12.30;99.90;;;;;;5051729;28;20386;-75
2022/08/14 01:02:00;;;;;;;;;;;12.30;99.90;;;;;;5050623;28;19916;-71
2022/08/14 01:04:27;;;;;;;;;;;12.20;99.90;;;;;;5050488;28;19913;-72
2022/08/14 01:06:53;;;;;;;;;;;12.20;99.90;;;;;;5050873;28;19924;-73
2022/08/14 01:09:21;;;;;;;;;;;12.20;99.90;;;;;;5050937;28;19916;-73
2022/08/14 01:11:50;;;;;;;;;;;12.10;99.90;;;;;;5050692;28;19909;-72
2022/08/14 01:14:19;;;;;;;;;;;12.00;99.90;;;;;;5052081;28;19962;-71
2022/08/14 01:16:46;;;;;;;;;;;11.90;99.90;;;;;;5053612;28;19914;-71
2022/08/14 01:21:56;;;;;;;;;;;11.90;99.90;;;;;;5054262;28;19962;-72
2022/08/14 01:24:21;;;;;;;;;;;12.00;99.90;;;;;;5053984;28;19909;-72
2022/08/14 01:26:47;;;;;;;;;;;11.90;99.90;;;;;;5054642;28;19956;-72
2022/08/14 01:29:12;;;;;;;;;;;11.90;99.90;;;;;;5052968;28;19932;-72
2022/08/14 01:31:42;;;;;;;;;;;11.90;99.90;;;;;;5056716;28;19989;-72
2022/08/14 01:34:07;;;;;;;;;;;11.80;99.90;;;;;;5054215;28;19909;-72
2022/08/14 01:36:35;;;;;;;;;;;11.80;99.90;;;;;;5054483;28;19916;-72
2022/08/14 01:39:02;;;;;;;;;;;11.70;99.90;;;;;;5053246;28;19974;-72
2022/08/14 01:41:28;;;;;;;;;;;11.70;99.90;;;;;;5054119;28;20277;-72
2022/08/14 01:43:53;;;;;;;;;;;11.70;99.90;;;;;;5053631;28;19916;-72
2022/08/14 01:46:21;;;;;;;;;;;11.80;99.90;;;;;;5053110;28;19912;-72
2022/08/14 01:48:47;;;;;;;;;;;11.80;99.90;;;;;;5053055;28;19908;-72
2022/08/14 01:51:14;;;;;;;;;;;11.70;99.90;;;;;;5054193;28;19920;-72
2022/08/14 01:53:41;;;;;;;;;;;11.70;99.90;;;;;;5053728;28;19908;-72
2022/08/14 01:56:07;;;;;;;;;;;11.80;99.90;;;;;;5054038;28;19908;-72
2022/08/14 01:58:32;;;;;;;;;;;11.80;99.90;;;;;;5051519;28;19966;-72
2022/08/14 02:00:58;;;;;;;;;;;11.80;99.90;;;;;;5053983;28;20352;-75
2022/08/14 02:03:29;;;;;;;;;;;11.70;99.90;;;;;;5051874;28;19912;-75
2022/08/14 02:05:57;;;;;;;;;;;11.60;99.90;;;;;;5054077;28;19913;-73
2022/08/14 02:08:28;;;;;;;;;;;11.60;99.90;;;;;;5053502;28;20313;-73
2022/08/14 02:11:15;;;;;;;;;;;11.60;99.90;;;;;;5053964;28;19909;-74
2022/08/14 02:13:45;;;;;;;;;;;11.70;99.90;;;;;;5053026;28;19909;-73
2022/08/14 02:16:11;;;;;;;;;;;11.40;99.90;;;;;;5045640;28;19909;-73
2022/08/14 02:18:36;;;;;;;;;;;11.30;99.90;;;;;;5053924;28;20329;-74
2022/08/14 02:21:03;;;;;;;;;;;11.40;99.90;;;;;;5053677;28;19955;-72
2022/08/14 02:23:32;;;;;;;;;;;11.60;99.90;;;;;;5052819;28;19909;-73
2022/08/14 02:25:58;;;;;;;;;;;11.60;99.90;;;;;;5052740;28;19920;-73
2022/08/14 02:28:24;;;;;;;;;;;11.40;99.90;;;;;;5053440;28;19909;-72
2022/08/14 02:30:50;;;;;;;;;;;11.30;99.90;;;;;;5053576;28;20066;-72
2022/08/14 02:33:15;;;;;;;;;;;11.20;99.90;;;;;;5052775;28;20414;-73
2022/08/14 02:35:42;;;;;;;;;;;11.10;99.90;;;;;;5053279;28;19915;-73
2022/08/14 02:38:08;;;;;;;;;;;11.20;99.90;;;;;;5053790;28;19916;-73
2022/08/14 02:40:34;;;;;;;;;;;11.20;99.90;;;;;;5053384;28;19909;-73
2022/08/14 02:43:01;;;;;;;;;;;11.20;99.90;;;;;;5053121;28;20321;-73
2022/08/14 02:45:33;;;;;;;;;;;11.20;99.90;;;;;;5052809;28;20006;-73
2022/08/14 02:47:59;;;;;;;;;;;11.20;99.90;;;;;;5053289;28;19986;-72
2022/08/14 02:50:25;;;;;;;;;;;11.20;99.90;;;;;;5052034;28;19913;-75
2022/08/14 02:52:53;;;;;;;;;;;11.10;99.90;;;;;;5052407;28;19935;-73
2022/08/14 02:55:19;;;;;;;;;;;11.10;99.90;;;;;;5052766;28;19909;-73
2022/08/14 02:57:45;;;;;;;;;;;11.10;99.90;;;;;;5053066;28;20373;-73
2022/08/14 03:00:11;;;;;;;;;;;11.10;99.90;;;;;;5052483;28;19916;-72
2022/08/14 03:02:37;;;;;;;;;;;11.00;99.90;;;;;;5052420;28;19909;-73
2022/08/14 03:05:03;;;;;;;;;;;11.00;99.90;;;;;;5052495;28;20064;-72
2022/08/14 03:07:29;;;;;;;;;;;11.00;99.90;;;;;;5052185;28;19913;-73
2022/08/14 03:09:54;;;;;;;;;;;11.10;99.90;;;;;;5052691;28;19912;-73
2022/08/14 03:12:20;;;;;;;;;;;11.00;99.90;;;;;;5052401;28;19912;-73
2022/08/14 03:14:51;;;;;;;;;;;11.10;99.90;;;;;;5051965;28;19915;-73
2022/08/14 03:17:16;;;;;;;;;;;11.20;99.90;;;;;;5052707;28;19948;-73
2022/08/14 03:19:42;;;;;;;;;;;10.90;99.90;;;;;;5052279;28;20386;-74
2022/08/14 03:22:07;;;;;;;;;;;10.90;99.90;;;;;;5051835;28;19909;-72
2022/08/14 03:24:35;;;;;;;;;;;10.80;99.90;;;;;;5052130;28;20366;-73
2022/08/14 03:27:01;;;;;;;;;;;10.90;99.90;;;;;;5050874;28;20255;-73
2022/08/14 03:29:27;;;;;;;;;;;10.80;99.90;;;;;;5051229;28;19908;-73
2022/08/14 03:31:53;;;;;;;;;;;10.80;99.90;;;;;;5051727;28;19913;-73
2022/08/14 03:34:22;;;;;;;;;;;10.80;99.90;;;;;;5051898;28;19909;-72
2022/08/14 03:36:50;;;;;;;;;;;10.70;99.90;;;;;;5051944;28;20383;-73
2022/08/14 03:39:17;;;;;;;;;;;10.70;99.90;;;;;;5052240;28;19995;-72
2022/08/14 03:41:43;;;;;;;;;;;10.70;99.90;;;;;;5052049;28;19919;-72
2022/08/14 03:44:08;;;;;;;;;;;10.50;99.90;;;;;;5051329;28;19908;-73
2022/08/14 03:46:35;;;;;;;;;;;10.50;99.90;;;;;;5052087;28;19919;-73
2022/08/14 03:49:03;;;;;;;;;;;10.40;99.90;;;;;;5052079;28;19909;-73
2022/08/14 03:51:28;;;;;;;;;;;10.40;99.90;;;;;;5051823;28;19909;-72
2022/08/14 03:53:58;;;;;;;;;;;10.40;99.90;;;;;;5051523;28;19966;-73
2022/08/14 03:56:25;;;;;;;;;;;10.40;99.90;;;;;;5052510;28;19916;-73
2022/08/14 03:58:51;;;;;;;;;;;10.40;99.90;;;;;;5051320;28;19916;-74
2022/08/14 04:01:20;;;;;;;;;;;10.40;99.90;;;;;;5051402;28;19917;-73
2022/08/14 04:03:49;;;;;;;;;;;10.40;99.90;;;;;;5051685;28;19947;-73
2022/08/14 04:06:15;;;;;;;;;;;10.40;99.90;;;;;;5051815;28;19913;-73
2022/08/14 04:08:41;;;;;;;;;;;10.50;99.90;;;;;;5051500;28;20034;-73
2022/08/14 04:11:07;;;;;;;;;;;10.40;99.90;;;;;;5051967;28;20381;-74
2022/08/14 04:13:35;;;;;;;;;;;10.30;99.90;;;;;;5050485;28;19913;-73
2022/08/14 04:16:05;;;;;;;;;;;10.30;99.90;;;;;;5051894;28;19909;-72
2022/08/14 04:18:31;;;;;;;;;;;10.30;99.90;;;;;;5051568;28;19909;-72
2022/08/14 04:20:56;;;;;;;;;;;10.50;99.90;;;;;;5051771;28;19909;-72
2022/08/14 04:23:22;;;;;;;;;;;10.40;99.90;;;;;;5049289;28;19912;-72
2022/08/14 04:25:51;;;;;;;;;;;10.40;99.90;;;;;;5051666;28;20004;-73
2022/08/14 04:28:17;;;;;;;;;;;10.40;99.90;;;;;;5051208;28;19939;-72
2022/08/14 04:30:42;;;;;;;;;;;10.40;99.90;;;;;;5051495;28;20448;-72
2022/08/14 04:33:08;;;;;;;;;;;10.60;99.90;;;;;;5050749;28;19908;-73
2022/08/14 04:35:34;;;;;;;;;;;10.60;99.90;;;;;;5051586;28;19954;-74
2022/08/14 04:43:35;;;;;;;;;;;10.70;99.90;;;;;;5050621;28;19916;-73
2022/08/14 04:46:01;;;;;;;;;;;10.90;99.90;;;;;;5045718;28;19999;-73
2022/08/14 04:48:27;;;;;;;;;;;11.10;99.90;;;;;;5051935;28;19909;-73
2022/08/14 04:50:54;;;;;;;;;;;11.10;99.90;;;;;;5055540;28;19982;-73
2022/08/14 04:53:21;;;;;;;;;;;11.20;99.90;;;;;;5053959;28;20293;-73
2022/08/14 04:55:47;;;;;;;;;;;11.20;99.90;;;;;;5055608;28;19915;-73
2022/08/14 04:58:26;;;;;;;;;;;11.30;99.90;;;;;;5052299;28;20015;-73
2022/08/14 05:00:52;;;;;;;;;;;11.40;99.90;;;;;;5061108;28;19916;-73
2022/08/14 05:03:22;;;;;;;;;;;11.60;99.90;;;;;;5054523;28;19916;-75
2022/08/14 05:05:52;;;;;;;;;;;11.70;99.90;;;;;;5053970;28;20002;-73
2022/08/14 05:08:18;;;;;;;;;;;11.80;99.90;;;;;;5055297;28;20324;-73
2022/08/14 05:10:45;;;;;;;;;;;12.00;99.90;;;;;;5054263;28;19963;-73
2022/08/14 05:13:11;;;;;;;;;;;12.10;99.90;;;;;;5054462;28;19962;-75
2022/08/14 05:15:38;;;;;;;;;;;12.10;99.90;;;;;;5051694;28;19917;-73
2022/08/14 05:18:11;;;;;;;;;;;12.30;99.90;;;;;;5055163;28;19908;-73
2022/08/14 05:20:38;;;;;;;;;;;12.40;99.90;;;;;;5055121;28;20003;-74
2022/08/14 05:23:03;;;;;;;;;;;12.60;99.90;;;;;;5054860;28;19916;-73
2022/08/14 05:25:29;;;;;;;;;;;12.70;99.90;;;;;;5054521;28;20409;-74
2022/08/14 05:27:59;;;;;;;;;;;12.70;99.90;;;;;;5054431;28;19916;-73
2022/08/14 05:30:25;;;;;;;;;;;12.80;99.90;;;;;;5054578;28;20238;-73
2022/08/14 05:32:50;;;;;;;;;;;12.90;99.90;;;;;;5054132;28;20468;-73
2022/08/14 05:35:16;;;;;;;;;;;13.00;99.90;;;;;;5054179;28;20385;-74
2022/08/14 05:37:42;;;;;;;;;;;13.10;99.90;;;;;;5054236;28;20281;-73
2022/08/14 05:40:09;;;;;;;;;;;13.20;99.90;;;;;;5054586;28;19909;-73
2022/08/14 05:42:35;;;;;;;;;;;13.40;99.90;;;;;;5054367;28;19909;-73
2022/08/14 05:45:02;;;;;;;;;;;13.60;99.90;;;;;;5054181;28;20281;-75
2022/08/14 05:47:27;;;;;;;;;;;13.60;99.90;;;;;;5054440;28;19912;-74
2022/08/14 05:49:55;;;;;;;;;;;13.60;99.90;;;;;;5053203;28;19920;-73
2022/08/14 05:52:21;;;;;;;;;;;13.60;99.90;;;;;;5053699;28;20405;-73
2022/08/14 05:54:46;;;;;;;;;;;13.70;99.90;;;;;;5053566;28;19943;-73
2022/08/14 05:57:12;;;;;;;;;;;13.80;99.90;;;;;;5054110;28;19920;-74
2022/08/14 05:59:37;;;;;;;;;;;14.00;99.90;;;;;;5053041;28;19916;-75
2022/08/14 06:02:03;;;;;;;;;;;14.00;99.90;;;;;;5053286;28;20397;-74
2022/08/14 06:04:29;;;;;;;;;;;14.30;99.90;;;;;;5053958;28;19913;-73
2022/08/14 06:06:54;;;;;;;;;;;14.50;99.90;;;;;;5053895;28;20365;-74
2022/08/14 06:09:19;;;;;;;;;;;14.60;99.90;;;;;;5053422;28;20366;-75
2022/08/14 06:11:45;;;;;;;;;;;14.60;99.90;;;;;;5053623;28;19947;-73
2022/08/14 06:14:10;;;;;;;;;;;14.70;99.90;;;;;;5053541;28;20281;-74
2022/08/14 06:16:36;;;;;;;;;;;14.80;99.90;;;;;;5053980;28;19909;-74
2022/08/14 06:19:01;;;;;;;;;;;14.90;99.90;;;;;;5053918;28;19909;-73
2022/08/14 06:21:27;;;;;;;;;;;15.20;99.90;;;;;;5053858;28;20366;-73
2022/08/14 06:23:52;;;;;;;;;;;15.40;99.90;;;;;;5054394;28;19919;-73
2022/08/14 06:26:18;;;;;;;;;;;15.50;99.90;;;;;;5053760;28;19913;-75
2022/08/14 06:28:44;;;;;;;;;;;15.60;99.90;;;;;;5050454;28;19992;-73
2022/08/14 06:31:10;;;;;;;;;;;15.70;99.90;;;;;;5053344;28;19908;-73
2022/08/14 06:33:35;;;;;;;;;;;15.90;99.90;;;;;;5052539;28;19908;-73
2022/08/14 06:36:01;;;;;;;;;;;16.00;99.90;;;;;;5053577;28;19940;-73
2022/08/14 06:38:26;;;;;;;;;;;16.20;99.90;;;;;;5053357;28;20288;-73
2022/08/14 06:40:52;;;;;;;;;;;16.30;99.90;;;;;;5053711;28;20271;-73
2022/08/14 06:43:18;;;;;;;;;;;16.30;99.90;;;;;;5053249;28;20310;-73
2022/08/14 06:45:44;;;;;;;;;;;16.50;99.90;;;;;;5053378;28;19955;-73
2022/08/14 06:48:13;;;;;;;;;;;16.70;99.90;;;;;;5053524;28;20025;-73
2022/08/14 06:50:39;;;;;;;;;;;16.80;99.90;;;;;;5053406;28;19916;-73
2022/08/14 06:53:06;;;;;;;;;;;16.90;99.90;;;;;;5052201;28;19916;-73
2022/08/14 06:55:31;;;;;;;;;;;17.10;99.90;;;;;;5053395;28;19916;-73
2022/08/14 06:57:57;;;;;;;;;;;17.30;99.90;;;;;;5053524;28;19909;-75
2022/08/14 07:00:23;;;;;;;;;;;17.50;99.90;;;;;;5052807;28;19999;-73
2022/08/14 07:05:49;;;;;;;;;;;17.80;99.90;;;;;;5051256;28;19916;-73
2022/08/14 07:08:16;;;;;;;;;;;18.00;99.90;;;;;;5052681;28;19942;-73
2022/08/14 07:10:46;;;;;;;;;;;18.30;99.90;;;;;;5052984;28;19909;-73
2022/08/14 07:13:13;;;;;;;;;;;18.50;99.90;;;;;;5051775;28;19915;-73
2022/08/14 07:15:39;;;;;;;;;;;18.90;99.90;;;;;;5053063;28;19952;-73
2022/08/14 07:18:06;;;;;;;;;;;19.10;99.90;;;;;;5052933;28;20285;-73
2022/08/14 07:20:32;;;;;;;;;;;18.90;99.90;;;;;;5052886;28;19916;-73
2022/08/14 07:22:59;;;;;;;;;;;19.30;99.90;;;;;;5052060;28;19908;-73
2022/08/14 07:25:25;;;;;;;;;;;20.60;99.90;;;;;;5052241;28;20010;-73
2022/08/14 07:27:51;;;;;;;;;;;22.70;97.10;;;;;;5049775;28;20431;-73
2022/08/14 07:30:16;;;;;;;;;;;23.90;89.10;;;;;;5057665;28;19913;-73
2022/08/14 07:32:42;;;;;;;;;;;24.40;85.70;;;;;;5052206;28;19909;-75
2022/08/14 07:35:07;;;;;;;;;;;25.00;81.80;;;;;;5048945;28;19913;-74
2022/08/14 07:37:33;;;;;;;;;;;25.50;78.80;;;;;;5052277;28;19912;-74
2022/08/14 07:39:59;;;;;;;;;;;26.00;76.10;;;;;;5048156;28;19909;-74
2022/08/14 07:42:25;;;;;;;;;;;25.50;76.70;;;;;;5051814;28;19916;-74
2022/08/14 07:44:51;;;;;;;;;;;25.70;76.30;;;;;;5051917;28;20358;-74
2022/08/14 07:47:16;;;;;;;;;;;26.50;71.50;;;;;;5052212;28;19912;-74
2022/08/14 07:49:44;;;;;;;;;;;27.20;70.60;;;;;;5052246;28;19956;-73
2022/08/14 07:52:09;;;;;;;;;;;27.10;69.00;;;;;;5051841;28;19916;-74
2022/08/14 07:54:35;;;;;;;;;;;28.00;65.60;;;;;;5051733;28;20315;-74
2022/08/14 07:57:01;;;;;;;;;;;28.10;64.20;;;;;;5052145;28;19909;-73
2022/08/14 07:59:27;;;;;;;;;;;28.30;61.30;;;;;;5053832;28;19916;-75
2022/08/14 08:01:52;;;;;;;;;;;28.10;60.40;;;;;;5055027;28;19913;-75
2022/08/14 08:04:21;;;;;;;;;;;28.10;60.40;;;;;;5051220;28;19986;-73
2022/08/14 08:06:47;;;;;;;;;;;28.40;59.40;;;;;;5051112;28;20357;-74
2022/08/14 08:09:13;;;;;;;;;;;28.90;60.80;;;;;;5051658;28;19975;-75
2022/08/14 08:11:39;;;;;;;;;;;28.80;57.00;;;;;;5051438;28;19991;-74
2022/08/14 08:14:08;;;;;;;;;;;29.30;57.00;;;;;;5051445;28;20150;-74
2022/08/14 08:16:35;;;;;;;;;;;29.00;58.50;;;;;;5052261;28;19913;-74
2022/08/14 08:19:00;;;;;;;;;;;29.50;58.20;;;;;;5051794;28;19913;-74
2022/08/14 08:21:26;;;;;;;;;;;29.60;57.70;;;;;;5051408;28;19916;-74
2022/08/14 08:23:53;;;;;;;;;;;30.30;57.60;;;;;;5050388;28;20003;-74
2022/08/14 08:26:18;;;;;;;;;;;30.60;56.10;;;;;;5051646;28;20345;-74
2022/08/14 08:28:53;;;;;;;;;;;30.30;54.20;;;;;;5054895;28;19958;-74
2022/08/14 08:31:19;;;;;;;;;;;29.60;57.20;;;;;;5051100;28;19955;-76
2022/08/14 08:33:49;;;;;;;;;;;30.50;57.00;;;;;;5051353;28;19955;-75
2022/08/14 08:36:15;;;;;;;;;;;30.90;54.40;;;;;;5051648;28;20384;-74
2022/08/14 08:38:40;;;;;;;;;;;31.40;55.80;;;;;;5051372;28;19913;-74
2022/08/14 08:41:06;;;;;;;;;;;31.50;51.80;;;;;;5052139;28;19960;-74
2022/08/14 08:43:33;;;;;;;;;;;31.90;55.30;;;;;;5050976;28;19912;-74
2022/08/14 08:46:02;;;;;;;;;;;32.20;49.70;;;;;;5051434;28;19919;-74
2022/08/14 08:48:42;;;;;;;;;;;32.00;55.00;;;;;;5051588;28;20262;-74
2022/08/14 08:51:08;;;;;;;;;;;31.90;54.10;;;;;;5051512;28;19909;-74
2022/08/14 08:53:35;;;;;;;;;;;31.90;49.10;;;;;;5050654;28;20004;-73
2022/08/14 08:56:01;;;;;;;;;;;32.50;51.50;;;;;;5051662;28;19909;-74
2022/08/14 08:58:27;;;;;;;;;;;32.30;50.60;;;;;;5048807;28;20039;-74
2022/08/14 09:00:55;;;;;;;;;;;33.00;51.00;;;;;;5051477;28;19970;-74
2022/08/14 09:03:27;;;;;;;;;;;32.70;50.30;;;;;;5050874;28;20362;-74
2022/08/14 09:05:54;;;;;;;;;;;32.20;51.40;;;;;;5051464;28;19913;-73
2022/08/14 09:08:21;;;;;;;;;;;32.10;48.80;;;;;;5051279;28;19917;-73
2022/08/14 09:10:46;;;;;;;;;;;31.60;51.40;;;;;;5051666;28;19916;-74
2022/08/14 09:13:12;;;;;;;;;;;31.30;51.50;;;;;;5051026;28;19909;-73
2022/08/14 09:15:39;;;;;;;;;;;31.70;49.80;;;;;;5051457;28;20004;-76
2022/08/14 09:18:07;;;;;;;;;;;31.20;48.70;;;;;;5049225;28;21549;-73
2022/08/14 09:20:33;;;;;;;;;;;30.60;52.10;;;;;;5049297;28;19920;-74
2022/08/14 09:22:59;;;;;;;;;;;32.20;50.50;;;;;;5049428;28;19909;-74
2022/08/14 09:25:25;;;;;;;;;;;32.30;46.80;;;;;;5051144;28;20293;-74
2022/08/14 09:27:50;;;;;;;;;;;31.70;48.80;;;;;;5050985;28;19913;-76
2022/08/14 09:30:16;;;;;;;;;;;33.00;47.50;;;;;;5050680;28;19913;-74
2022/08/14 09:32:50;;;;;;;;;;;33.70;47.70;;;;;;5050918;28;19909;-74
2022/08/14 09:35:22;;;;;;;;;;;34.20;44.70;;;;;;5052351;28;19909;-74
2022/08/14 09:37:53;;;;;;;;;;;32.70;45.40;;;;;;5055279;28;20004;-74
2022/08/14 09:40:38;;;;;;;;;;;31.80;44.90;;;;;;5054977;28;19912;-74
2022/08/14 09:43:06;;;;;;;;;;;31.80;50.00;;;;;;5048455;28;20011;-73
2022/08/14 09:45:43;;;;;;;;;;;33.70;46.80;;;;;;5054772;28;19963;-74
2022/08/14 09:48:22;;;;;;;;;;;33.50;45.40;;;;;;5052491;28;19928;-77
2022/08/14 09:50:51;;;;;;;;;;;34.50;42.10;;;;;;5048069;28;19909;-74
2022/08/14 09:53:43;;;;;;;;;;;34.10;40.50;;;;;;5053279;28;19939;-73
2022/08/14 09:56:09;;;;;;;;;;;33.60;42.10;;;;;;5054752;28;19915;-73
2022/08/14 09:58:42;;;;;;;;;;;34.60;42.90;;;;;;5054170;28;19916;-73
2022/08/14 10:01:08;;;;;;;;;;;34.80;42.60;;;;;;5050636;28;19916;-74
2022/08/14 10:03:34;;;;;;;;;;;34.80;42.80;;;;;;5057359;28;19909;-74
2022/08/14 10:06:07;;;;;;;;;;;35.00;46.10;;;;;;5054512;28;19920;-74
2022/08/14 10:09:00;;;;;;;;;;;35.90;42.10;;;;;;5054373;28;20293;-73
2022/08/14 10:11:28;;;;;;;;;;;34.60;40.10;;;;;;5053894;28;19963;-74
2022/08/14 10:13:58;;;;;;;;;;;35.00;41.90;;;;;;5054108;28;19916;-75
2022/08/14 10:16:25;;;;;;;;;;;35.70;42.40;;;;;;5054423;28;19915;-73
2022/08/14 10:19:05;;;;;;;;;;;34.40;42.20;;;;;;5054545;28;19916;-73
2022/08/14 10:21:30;;;;;;;;;;;34.00;43.30;;;;;;5048150;28;19972;-73
2022/08/14 10:23:56;;;;;;;;;;;35.20;41.80;;;;;;5053396;28;19916;-74
2022/08/14 10:26:23;;;;;;;;;;;35.20;42.70;;;;;;5054931;28;19913;-73
2022/08/14 10:28:50;;;;;;;;;;;34.60;44.40;;;;;;5054874;28;19909;-73
2022/08/14 10:31:19;;;;;;;;;;;35.50;40.90;;;;;;5053595;28;19924;-73
2022/08/14 10:33:57;;;;;;;;;;;35.20;37.60;;;;;;5054842;28;19909;-73
2022/08/14 10:36:31;;;;;;;;;;;35.00;38.30;;;;;;5049739;28;20318;-73
2022/08/14 10:38:57;;;;;;;;;;;35.70;40.20;;;;;;5054268;28;20358;-73
2022/08/14 10:41:32;;;;;;;;;;;36.20;41.60;;;;;;5054171;28;19963;-72
2022/08/14 10:44:08;;;;;;;;;;;35.80;40.20;;;;;;5054062;28;20011;-73
2022/08/14 10:46:41;;;;;;;;;;;36.30;36.30;;;;;;5054511;28;20224;-72
2022/08/14 10:49:15;;;;;;;;;;;35.20;36.40;;;;;;5055569;28;19909;-72
2022/08/14 10:51:40;;;;;;;;;;;35.80;39.00;;;;;;5054998;28;19913;-72
2022/08/14 10:54:07;;;;;;;;;;;36.40;39.10;;;;;;5054884;28;19916;-73
2022/08/14 10:56:34;;;;;;;;;;;35.90;35.50;;;;;;5054857;28;19913;-73
2022/08/14 10:59:04;;;;;;;;;;;36.30;37.70;;;;;;5056143;28;19909;-73
2022/08/14 11:01:31;;;;;;;;;;;37.30;36.40;;;;;;5055308;28;19916;-73
2022/08/14 11:03:56;;;;;;;;;;;37.20;35.50;;;;;;5057438;28;19916;-73
2022/08/14 11:06:22;;;;;;;;;;;36.60;36.50;;;;;;5056085;28;19912;-73
2022/08/14 11:08:48;;;;;;;;;;;37.00;34.10;;;;;;5055773;28;19917;-73
2022/08/14 11:11:14;;;;;;;;;;;38.00;36.10;;;;;;5055457;28;19967;-77
2022/08/14 11:13:42;;;;;;;;;;;37.90;32.70;;;;;;5055364;28;20012;-74
2022/08/14 11:16:08;;;;;;;;;;;37.30;35.70;;;;;;5055052;28;19915;-74
2022/08/14 11:18:35;;;;;;;;;;;36.30;35.50;;;;;;5054480;28;19916;-73
2022/08/14 11:21:01;;;;;;;;;;;37.70;36.70;;;;;;5055302;28;19913;-73
2022/08/14 11:23:34;;;;;;;;;;;36.20;37.10;;;;;;5055901;28;20427;-72
2022/08/14 11:26:01;;;;;;;;;;;35.50;37.50;;;;;;5056886;28;19913;-73
2022/08/14 11:28:29;;;;;;;;;;;37.20;34.40;;;;;;5057802;28;19920;-73
2022/08/14 11:30:57;;;;;;;;;;;35.80;35.70;;;;;;5056209;28;20383;-73
2022/08/14 11:33:23;;;;;;;;;;;37.00;35.70;;;;;;5059167;28;20289;-74
2022/08/14 11:35:49;;;;;;;;;;;36.80;36.60;;;;;;5061597;28;20431;-72
2022/08/14 11:38:16;;;;;;;;;;;35.10;36.40;;;;;;5055528;28;19913;-75
2022/08/14 11:40:42;;;;;;;;;;;35.10;37.80;;;;;;5059843;28;20313;-76
2022/08/14 11:43:08;;;;;;;;;;;35.30;38.30;;;;;;5060737;28;19968;-75
2022/08/14 11:45:37;;;;;;;;;;;36.20;36.10;;;;;;5056177;28;19944;-73
2022/08/14 11:48:20;;;;;;;;;;;36.00;36.00;;;;;;5057275;28;19909;-74
2022/08/14 11:50:46;;;;;;;;;;;34.90;38.30;;;;;;5055653;28;19916;-73
2022/08/14 11:53:19;;;;;;;;;;;33.70;36.00;;;;;;5054185;28;20148;-73
2022/08/14 11:55:45;;;;;;;;;;;34.40;35.90;;;;;;5057750;28;20362;-74
2022/08/14 11:58:11;;;;;;;;;;;33.80;38.00;;;;;;5059728;28;19909;-74
2022/08/14 12:00:52;;;;;;;;;;;33.00;35.80;;;;;;5058879;28;19963;-73
2022/08/14 12:03:17;;;;;;;;;;;33.50;35.90;;;;;;5064859;28;19909;-73
2022/08/14 12:05:43;;;;;;;;;;;33.20;34.90;;;;;;5055536;28;19913;-73
2022/08/14 12:08:09;;;;;;;;;;;33.60;36.70;;;;;;5055994;28;19924;-74
2022/08/14 12:10:39;;;;;;;;;;;33.10;36.90;;;;;;5057048;28;19909;-74
2022/08/14 12:13:10;;;;;;;;;;;33.40;39.30;;;;;;5058426;28;19972;-77
2022/08/14 12:15:36;;;;;;;;;;;33.80;36.00;;;;;;5060823;28;19908;-73
2022/08/14 12:18:02;;;;;;;;;;;33.50;37.50;;;;;;5058935;28;19912;-73
2022/08/14 12:20:32;;;;;;;;;;;34.00;34.20;;;;;;5059320;28;19909;-72
2022/08/14 12:22:59;;;;;;;;;;;33.70;33.60;;;;;;5059651;28;19913;-73
2022/08/14 12:25:25;;;;;;;;;;;34.70;32.90;;;;;;5055151;28;19920;-74
2022/08/14 12:27:51;;;;;;;;;;;35.90;32.80;;;;;;5054736;28;19975;-76
2022/08/14 12:30:26;;;;;;;;;;;35.10;31.60;;;;;;5056013;28;19909;-74
2022/08/14 12:32:52;;;;;;;;;;;36.10;32.70;;;;;;5050725;28;20058;-74
2022/08/14 12:35:17;;;;;;;;;;;37.00;32.10;;;;;;5053284;28;19959;-74
2022/08/14 12:37:47;;;;;;;;;;;37.80;30.10;;;;;;5054308;28;20275;-73
2022/08/14 12:40:14;;;;;;;;;;;38.50;29.60;;;;;;5052906;28;19988;-74
2022/08/14 12:42:39;;;;;;;;;;;38.80;28.50;;;;;;5053387;28;20280;-74
2022/08/14 12:45:06;;;;;;;;;;;38.10;28.30;;;;;;5053537;28;19987;-76
2022/08/14 12:47:31;;;;;;;;;;;38.20;29.00;;;;;;5053297;28;20381;-75
2022/08/14 12:49:57;;;;;;;;;;;38.30;29.10;;;;;;5054222;28;19913;-74
2022/08/14 12:52:26;;;;;;;;;;;38.20;29.20;;;;;;5054623;28;19923;-73
2022/08/14 12:55:03;;;;;;;;;;;39.50;27.30;;;;;;5054184;28;19912;-73
2022/08/14 12:57:50;;;;;;;;;;;40.20;28.10;;;;;;5053832;28;19909;-73
2022/08/14 13:00:19;;;;;;;;;;;39.80;27.70;;;;;;5053920;28;19908;-75
2022/08/14 13:02:46;;;;;;;;;;;39.00;28.60;;;;;;5052406;28;19908;-72
2022/08/14 13:05:12;;;;;;;;;;;39.40;28.10;;;;;;5057404;28;19912;-72
2022/08/14 13:07:39;;;;;;;;;;;37.50;28.40;;;;;;5053910;28;19966;-74
2022/08/14 13:10:14;;;;;;;;;;;37.80;30.50;;;;;;5054633;28;19913;-72
2022/08/14 13:12:40;;;;;;;;;;;38.20;28.60;;;;;;5053945;28;19908;-74
2022/08/14 13:15:07;;;;;;;;;;;38.30;27.40;;;;;;5058568;28;19916;-75
2022/08/14 13:17:37;;;;;;;;;;;38.40;28.00;;;;;;5057563;28;19909;-73
2022/08/14 13:20:03;;;;;;;;;;;39.20;28.70;;;;;;5056700;28;19908;-75
2022/08/14 13:22:28;;;;;;;;;;;38.90;27.60;;;;;;5056122;28;19913;-75
2022/08/14 13:24:54;;;;;;;;;;;39.90;27.00;;;;;;5055678;28;19935;-75
2022/08/14 13:27:21;;;;;;;;;;;39.40;27.40;;;;;;5056313;28;19935;-73
2022/08/14 13:29:49;;;;;;;;;;;39.30;28.00;;;;;;5055551;28;19916;-74
2022/08/14 13:32:15;;;;;;;;;;;38.50;28.10;;;;;;5055707;28;19909;-74
2022/08/14 13:34:42;;;;;;;;;;;38.20;28.00;;;;;;5056595;28;19908;-73
2022/08/14 13:37:09;;;;;;;;;;;39.60;28.00;;;;;;5057042;28;19909;-74
2022/08/14 13:39:34;;;;;;;;;;;38.60;28.50;;;;;;5056565;28;20301;-77
2022/08/14 13:42:03;;;;;;;;;;;37.40;29.00;;;;;;5056606;28;20007;-74
2022/08/14 13:44:34;;;;;;;;;;;37.60;28.70;;;;;;5043659;28;19932;-74
2022/08/14 13:47:05;;;;;;;;;;;37.20;28.70;;;;;;5056824;28;20004;-75
2022/08/14 13:49:31;;;;;;;;;;;37.40;29.40;;;;;;5057701;28;19909;-75
2022/08/14 13:51:57;;;;;;;;;;;36.90;29.20;;;;;;5057284;28;19970;-76
2022/08/14 13:54:26;;;;;;;;;;;37.40;28.40;;;;;;5056659;28;19913;-76
2022/08/14 13:56:53;;;;;;;;;;;38.50;27.40;;;;;;5055507;28;19916;-75
2022/08/14 13:59:19;;;;;;;;;;;38.00;29.60;;;;;;5056260;28;19913;-72
2022/08/14 14:01:44;;;;;;;;;;;36.80;29.90;;;;;;5052212;28;20275;-73
2022/08/14 14:04:12;;;;;;;;;;;36.80;28.40;;;;;;5055759;28;20373;-74
2022/08/14 14:06:38;;;;;;;;;;;37.80;28.80;;;;;;5055759;28;20358;-74
2022/08/14 14:09:05;;;;;;;;;;;37.30;29.40;;;;;;5055370;28;19924;-74
2022/08/14 14:11:31;;;;;;;;;;;36.50;30.70;;;;;;5054948;28;20285;-73
2022/08/14 14:13:58;;;;;;;;;;;36.90;31.20;;;;;;5054294;28;19943;-73
2022/08/14 14:16:25;;;;;;;;;;;36.40;30.30;;;;;;5054827;28;19913;-74
2022/08/14 14:18:54;;;;;;;;;;;36.10;29.60;;;;;;5054534;28;19908;-74
2022/08/14 14:21:25;;;;;;;;;;;37.00;29.50;;;;;;5053716;28;20002;-74
2022/08/14 14:23:50;;;;;;;;;;;36.50;30.90;;;;;;5054069;28;20003;-73
2022/08/14 14:26:17;;;;;;;;;;;34.20;34.00;;;;;;5054855;28;19923;-73
2022/08/14 14:28:43;;;;;;;;;;;35.80;31.00;;;;;;5054696;28;19915;-74